KBBB

Benson Municipal Airport

Benson, Minnesota, USA
METAR KBBB 190855Z AUTO 24011KT 10SM CLR 13/07 A2983 RMK AO2
Observed Flight Rules
Oct-19 @ 08:55 UTC (11 minutes ago) Visual Flight Rules
Wind Visibility Clouds
240° at 11 knots 10 miles
  • Clear skies
Temperatures Readings
Current 13°C / 55°F
Dewpoint 7°C / 45°F
Humidity 67%
Altimeter 29.83" Hg
Pressure 1010 hPa
Elevation 317
METAR KBBB 190855Z AUTO 24011KT 10SM CLR 13/07 A2983 RMK AO2
Observed Flight Rules
Oct-19 @ 08:55 UTC
(11 minutes ago)
VFR
Wind Visibility
240° at 11 knots 10 miles
Clouds
  • Clear skies
Temperature Dewpoint
13°C / 55°F 7°C / 45°F
Humidity Altimeter Pressure
67% 29.83" Hg 1010 hPa